Aviation Digital Data Service (ADDS)

Output produced by METARs form (0325 UTC 21 September 2017)
found at http://www.aviationweather.gov/adds/metars/
 
EDMA 210320Z AUTO 00000KT 0550 R25/0700U // FEW004/// SCT008/// 05/05 Q1022
EDDW 210320Z 17003KT 3700 BR FEW044 BKN110 09/09 Q1020
TAF EDDW 202300Z 2100/2124 18003KT 9999 FEW040 
     TEMPO 2100/2108 2000 BCFG 
     PROB30 
     TEMPO 2100/2107 0500 FG
       
ETSB 210220Z AUTO 25004KT 9000 // ////// 07/07 Q1021 ///
ETHB 210220Z AUTO 19006KT 6000 // ////// 11/09 Q1020 ///
ETHC 210220Z AUTO 00000KT 2300 // ////// 09/08 Q1021 ///
EDLW 210320Z 16008KT CAVOK 09/06 Q1021
TAF EDLW 201700Z 2018/2118 25005KT 9999 SCT040 
     BECMG 2018/2021 18006KT
       
EDDC 210320Z 24003KT 210V270 CAVOK 09/07 Q1021
TAF EDDC 202300Z 2100/2124 25004KT 9999 SCT040 
     PROB40 
     TEMPO 2104/2108 4000 BR BKN010 
     BECMG 2108/2110 31005KT 
     BECMG 2117/2119 VRB02KT
       
EDDL 210320Z 15008KT CAVOK 10/08 Q1021 NOSIG
TAF EDDL 202300Z 2100/2206 16007KT CAVOK
       
EDDE 210320Z 23006KT CAVOK 08/07 Q1021
TAF EDDE 202300Z 2100/2124 21003KT 9999 SCT040 
     TEMPO 2103/2107 3500 BR 
     BECMG 2109/2111 31005KT 
     BECMG 2114/2116 VRB02KT
       
ETHS 210220Z 21002KT 8000 BKN060 11/10 Q1020 BLU
EDFH 210320Z 18002KT CAVOK 06/05 Q1021
TAF EDFH 202300Z 2100/2124 16006KT CAVOK 
     PROB30 
     TEMPO 2106/2109 1200 BCFG BKN002
       
EDDF 210320Z VRB02KT 0300 R25R/0800V1400U R25C/0400V0600N R25L/1200N R18/0500N FG SCT001 07/06 Q1022 TEMPO BKN001
TAF AMD EDDF 210208Z 2102/2206 VRB03KT 0800 FG SCT001 
     TEMPO 2102/2108 0400 FG BKN001 
     BECMG 2108/2110 12005KT 9999 
     BECMG 2118/2120 VRB03KT 
     TEMPO 2203/2206 4000 BR
       
EDNY 210250Z AUTO 05004KT 010V080 6000 05/05 Q1022
TAF EDNY 202300Z 2100/2124 04005KT 9999 FEW040 
     TEMPO 2100/2107 4000 BR 
     PROB30 
     TEMPO 2102/2106 0800 FG VV002
       
ETHF 210220Z 30002KT 0100 FG VV002 07/07 Q1022 RED
ETNG 210250Z 17004KT CAVOK 09/07 Q1021
TAF ETNG 210200Z 2103/2118 18003KT CAVOK 
     PROB30 
     TEMPO 2104/2107 4500 MIFG BR
       
ETIC 210256Z AUTO 00000KT 9999 BKN050 OVC080 08/08 A3016 RMK AO2 SLP218 T00790078 58003 $
TAF ETIC 202159Z 2022/2204 24006KT 9999 BKN050 QNH3017INS 
     BECMG 2103/2104 VRB06KT 5000 BR SCT060 QNH3018INS 
     TEMPO 2104/2106 2400 BR 
     BECMG 2108/2109 VRB06KT 9999 NSW FEW030 BKN050 QNH3020INS 
     BECMG 2121/2122 VRB06KT 8000 BR SKC QNH3022INS TX15/2114Z TN04/2104Z
       
EDDH 210320Z 22003KT 9000 FEW047 BKN110 11/11 Q1020 NOSIG
TAF EDDH 202300Z 2100/2206 22003KT 9999 SCT045 
     PROB30 
     TEMPO 2100/2107 3500 BR 
     TEMPO 2200/2206 3500 BR 
     PROB30 
     TEMPO 2203/2206 1200 BCFG
       
EDDV 210320Z 13002KT 5000 BR NSC 09/08 Q1021
TAF EDDV 202300Z 2100/2124 22003KT 9999 FEW040 
     TEMPO 2100/2107 2000 BCFG 
     PROB30 
     TEMPO 2100/2107 0500 FG 
     TEMPO 2107/2108 3500 BR
       
ETIH 210256Z AUTO 00000KT 9999 FEW060 SCT085 08/08 A3018 RMK AO2 SLP224 T00780075 58004 $
ETNH 210220Z VRB03KT 9000 BKN060 12/11 Q1019 BLU
TAF ETNH 202200Z 2023/2111 24005KT 9999 NSW BKN060 
     BECMG 2023/2101 VRB03KT 6000 NSW FEW005 BKN050 
     TEMPO 2101/2106 VRB02KT 3000 BR BKN005 BKN050 
     BECMG 2106/2108 20005KT 9999 NSW FEW010 BKN070 BY ETGL
       
ETSH 210220Z 00000KT 9000 SCT050 BKN070 08/07 Q1021 BLU
ETSI 210220Z AUTO 20001KT 0100 // ////// 08/07 Q1022 ///
EDSB 210320Z VRB01KT 0800 R21/0350N FG VV/// 06/06 Q1022
TAF EDSB 210300Z 2104/2124 VRB02KT 8000 NSC 
     BECMG 2104/2105 3000 BR 
     TEMPO 2104/2108 0300 FG BKN001 
     BECMG 2107/2110 03005KT 9999
       
EDVK 210150Z 09003KT 0100 R27/0300 FG NSC 08/08 Q1022
EDDK 210320Z 07002KT CAVOK 08/07 Q1021 NOSIG
TAF EDDK 202300Z 2100/2206 VRB03KT CAVOK 
     BECMG 2107/2110 13005KT
       
ETNL 210220Z 23003KT 9999 SCT065 BKN080 12/11 Q1019 BLU
TAF AMD ETNL 201710Z 2017/2105 24008KT 9999 NSW FEW020 BKN030 
     TEMPO 2017/2105 22005KT 3000 -SHRA BKN008 BY ETGL
       
EDTL 202220Z 29001KT 6000 BCFG NSC 08/08 Q1022
ETSA 210220Z 23003KT 9999 BKN070 07/06 Q1022 BLU
TAF ETSA 202200Z 2023/2111 18003KT 9999 NSW SCT040 
     PROB30 2102/2107 VRB03KT 2000 BCFG FEW010 SCT200 BY ETGL
       
ETHL 210238Z 16001KT 1800 VCFG BR 05/04 Q1022 YLO
TAF AMD ETHL 202040Z 2020/2105 21003KT 9999 NSW SCT040 BKN100 
     BECMG 2023/2101 VRB03KT 5000 BR FEW030 SCT130 
     PROB30 2102/2105 VRB02KT 0500 FG VV001 CANCEL 2120
       
ETSL 210220Z 20003KT 9999 MIFG SCT080 06/06 Q1022 BLU+
EDDP 210320Z 25004KT 9999 FEW040 BKN070 10/10 Q1021 NOSIG
TAF EDDP 202300Z 2100/2124 25004KT 9999 SCT040 
     TEMPO 2103/2107 3500 BR 
     BECMG 2110/2112 31005KT 
     BECMG 2116/2118 VRB02KT
       
EDDM 210320Z 00000KT 9999 MIFG FEW033 SCT100 06/06 Q1022 NOSIG
TAF EDDM 202300Z 2100/2206 25004KT 9999 SCT040 
     PROB30 
     TEMPO 2103/2108 1200 BCFG 
     BECMG 2113/2115 09005KT 
     BECMG 2117/2119 VRB02KT 
     BECMG 2200/2202 2000 BR 
     TEMPO 2202/2206 0700 FG VV002
       
EDDG 210320Z VRB02KT 4400 BR NSC 09/09 Q1020 NOSIG
TAF AMD EDDG 210050Z 2100/2124 VRB03KT 4000 BR NSC 
     TEMPO 2101/2105 6000 
     BECMG 2105/2108 CAVOK 
     TEMPO 2110/2115 18005KT
       
ETSN 210257Z 25001KT 0600 FG FEW090 07/06 Q1022 RED
TAF ETSN 210100Z 2102/2111 VRB03KT 8000 NSW BKN070 
     BECMG 2102/2103 VRB02KT 3000 BR SCT070 
     TEMPO 2103/2106 VRB02KT 0500 FG FEW001 
     BECMG 2106/2108 VRB03KT 9999 NSW SCT070 BY ETGL
       
ETHN 210220Z 16001KT 0100 FG VV000 06/06 Q1022 RED
ETMN 210220Z 21007KT 6000 BKN054 12/10 Q1019 WHT
ETNN 210220Z VRB02KT 9999 09/07 Q1021 BLU+
TAF ETNN 210145Z 2102/2111 VRB03KT 9999 NSW SCT030 
     PROB30 2104/2107 VRB03KT 4000 MIFG SCT030 SCT240 BY ETGL
       
EDDN 210320Z 11002KT 4500 BR MIFG FEW001 05/05 Q1022
TAF AMD EDDN 210145Z 2101/2124 VRB02KT 9999 SCT040 
     TEMPO 2101/2107 0600 FG VV002
       
EDLP 210320Z 19003KT CAVOK 09/07 Q1021
TAF EDLP 202300Z 2100/2124 16006KT CAVOK 
     PROB30 
     TEMPO 2101/2108 4000 BR
       
ETAR 210306Z 00000KT 0600 R27/0300V0550 FG VV002 04/04 A3018 RMK AO2A CIG 001 RWY08 SLP227 $
TAF ETAR 210205Z 2102/2208 VRB06KT 0400 FG VV001 QNH3016INS 
     TEMPO 2102/2106 0800 FG 
     BECMG 2106/2107 VRB06KT 5000 BR SCT020 QNH3017INS 
     BECMG 2107/2108 08009KT 9999 NSW FEW050 QNH3011INS 
     BECMG 2201/2202 VRB06KT 6000 BR SKC QNH3013INS 
     BECMG 2206/2207 VRB06KT 9999 NSW FEW080 QNH3014INS TX17/2114Z TN03/2104Z
       
ETHE 210220Z AUTO 14003KT //// // ////// 09/08 Q1020 ///
EDDR 210320Z 06003KT 4500 MIFG BR NSC 06/06 Q1021
TAF EDDR 202300Z 2100/2124 VRB03KT CAVOK 
     BECMG 2100/2103 3000 MIFG 
     TEMPO 2103/2108 0300 FG VV001 
     BECMG 2108/2110 08006KT
       
ETNS 210220Z AUTO 17005KT //// // ////// 12/11 Q1019 ///
TAF ETNS 210200Z 2102/2111 18010KT 9999 NSW FEW010 BKN050 
     TEMPO 2102/2108 17005KT 4000 BR BKN012 BKN080 BY ETGL
       
EDDB 210320Z 25004KT CAVOK 10/09 Q1020 NOSIG
TAF EDDB 202300Z 2100/2124 25004KT 9999 SCT040 
     PROB40 
     TEMPO 2104/2108 4000 BR BKN008 
     BECMG 2108/2110 31005KT 
     BECMG 2117/2119 VRB02KT
       
TAF EDOP 201100Z 2012/2112 25010KT 9999 BKN015 
     PROB30 
     TEMPO 2012/2015 4000 -RADZ BKN009 
     BECMG 2016/2018 24005KT
       
ETAD 210258Z AUTO 00000KT 9999 CLR 05/04 A3016 RMK AO2 SLP207 T00510042 57005 TSNO
TAF ETAD 210306Z 2103/2209 VRB06KT 8000 BR SKC QNH3015INS 
     BECMG 2104/2105 VRB06KT 3200 BR BKN003 QNH3015INS 
     BECMG 2106/2107 VRB06KT 6000 BR SCT020 QNH3016INS 
     BECMG 2107/2108 VRB06KT 9999 NSW FEW100 QNH3012INS TX17/2114Z TN05/2105Z
       
EDDS 210320Z 00000KT 0900 0300E R07/0600V1300U FG NSC 05/04 Q1022
TAF AMD EDDS 210311Z 2103/2124 VRB03KT 0300 FG BKN001 
     BECMG 2107/2110 9999 FEW008 
     BECMG 2111/2113 07005KT 
     BECMG 2118/2120 VRB03KT
       
EDDT 210320Z 27005KT CAVOK 11/09 Q1020 NOSIG
TAF EDDT 202300Z 2100/2124 25004KT 9999 SCT040 
     PROB40 
     TEMPO 2104/2108 4000 BR BKN008 
     BECMG 2108/2110 31005KT 
     BECMG 2117/2119 VRB02KT
       
ETOU 210319Z AUTO 00000KT 0600 R25/0200V1300 FG SCT000 06/05 A3018 RMK AO2 VIS 0600V9999 SLP223 $
TAF ETOU 210305Z 2103/2209 VRB06KT 6000 BR FEW030 QNH3017INS 
     BECMG 2106/2107 VRB06KT 9999 NSW FEW060 QNH3018INS 
     BECMG 2110/2111 VRB06KT 9999 FEW100 QNH3013INS TX17/2114Z TN06/2105Z
       
ETNT 210220Z 19005KT 8000 SCT050 BKN110 11/09 Q1019 BLU
TAF ETNT 210100Z 2102/2111 19005KT 9999 NSW SCT020 BKN060 
     TEMPO 2102/2106 18003KT 3000 MIFG SCT060 BY ETGL
       
ETNW 210220Z 00000KT 9999 MIFG FEW060 BKN120 08/08 Q1020 BLU
TAF ETNW 202200Z 2023/2123 22005KT 9999 NSW SCT080 SCT230 
     TEMPO 2023/2107 18003KT 6000 MIFG FEW070 FEW200 
     PROB30 2103/2107 VRB03KT 2500 BR FEW050 BKN100 BY ETGL